createdAt,value
2023-03-03T00:00:47.859Z,24.75
2023-03-03T00:03:18.684Z,23.77
2023-03-03T00:05:46.292Z,23.33
2023-03-03T00:11:03.244Z,24.83
2023-03-03T00:13:32.194Z,25.02
2023-03-03T00:16:15.193Z,24.17
2023-03-03T00:21:29.175Z,21.80
2023-03-03T00:24:04.512Z,25.42
2023-03-03T00:26:38.758Z,24.13
2023-03-03T00:29:27.653Z,26.42
2023-03-03T00:31:55.276Z,27.35
2023-03-03T00:34:27.789Z,24.30
2023-03-03T00:36:57.164Z,23.80
2023-03-03T00:39:30.182Z,25.33
2023-03-03T00:42:00.765Z,26.13
2023-03-03T00:44:40.341Z,25.20
2023-03-03T00:47:30.712Z,24.30
2023-03-03T00:50:22.173Z,26.00
2023-03-03T00:53:00.188Z,24.90
2023-03-03T00:55:27.711Z,24.95
2023-03-03T00:57:56.604Z,26.30
2023-03-03T01:00:24.396Z,26.25
2023-03-03T01:02:52.946Z,24.80
2023-03-03T01:05:21.641Z,27.25
2023-03-03T01:07:49.163Z,27.15
2023-03-03T01:10:16.913Z,25.30
2023-03-03T01:12:44.581Z,26.45
2023-03-03T01:15:15.709Z,26.33
2023-03-03T01:17:43.720Z,24.67
2023-03-03T01:20:13.703Z,26.83
2023-03-03T01:22:41.298Z,28.25
2023-03-03T01:25:09.877Z,28.45
2023-03-03T01:27:37.929Z,28.23
2023-03-03T01:30:06.118Z,28.40
2023-03-03T01:32:35.513Z,28.92
2023-03-03T01:35:03.081Z,26.88
2023-03-03T01:37:30.607Z,28.35
2023-03-03T01:39:58.166Z,29.02
2023-03-03T01:42:29.160Z,28.83
2023-03-03T01:45:20.126Z,28.48
2023-03-03T01:47:54.849Z,26.10
2023-03-03T01:50:39.734Z,25.75
2023-03-03T01:53:14.661Z,24.52
2023-03-03T01:55:44.568Z,26.05
2023-03-03T01:58:15.301Z,25.27
2023-03-03T02:00:47.323Z,25.33
2023-03-03T02:03:16.260Z,24.02
2023-03-03T02:05:44.630Z,26.13
2023-03-03T02:08:17.579Z,28.77
2023-03-03T02:10:47.072Z,28.45
2023-03-03T02:13:15.529Z,25.85
2023-03-03T02:15:43.052Z,27.92
2023-03-03T02:18:14.188Z,28.80
2023-03-03T02:20:54.916Z,27.83
2023-03-03T02:23:27.292Z,29.17
2023-03-03T02:26:06.613Z,29.75
2023-03-03T02:28:36.401Z,28.40
2023-03-03T02:31:04.563Z,26.35
2023-03-03T02:33:32.191Z,26.85
2023-03-03T02:35:59.781Z,29.10
2023-03-03T02:38:30.773Z,27.17
2023-03-03T02:41:09.211Z,27.50
2023-03-03T02:43:44.908Z,26.73
2023-03-03T02:46:12.414Z,27.35
2023-03-03T02:48:39.943Z,26.48
2023-03-03T02:51:07.460Z,26.50
2023-03-03T02:53:34.943Z,27.10
2023-03-03T02:56:04.400Z,26.30
2023-03-03T02:58:32.101Z,27.90
2023-03-03T03:00:59.684Z,26.27
2023-03-03T03:03:27.316Z,26.38
2023-03-03T03:05:54.878Z,26.58
2023-03-03T03:08:22.414Z,28.00
2023-03-03T03:10:50.166Z,27.05
2023-03-03T03:13:19.035Z,26.15
2023-03-03T03:15:46.941Z,26.83
2023-03-03T03:18:14.534Z,28.20
2023-03-03T03:20:42.271Z,28.52
2023-03-03T03:23:10.714Z,28.65
2023-03-03T03:25:45.143Z,27.65
2023-03-03T03:28:13.322Z,27.33
2023-03-03T03:30:42.672Z,26.55
2023-03-03T03:33:10.389Z,27.48
2023-03-03T03:35:40.398Z,26.02
2023-03-03T03:38:07.976Z,27.58
2023-03-03T03:40:35.471Z,28.70
2023-03-03T03:43:02.940Z,26.70
2023-03-03T03:45:30.479Z,28.75
2023-03-03T03:47:59.605Z,26.48
2023-03-03T03:50:27.673Z,28.80
2023-03-03T03:52:55.281Z,28.13
2023-03-03T03:55:23.522Z,27.10
2023-03-03T03:57:51.340Z,28.58
2023-03-03T04:00:19.441Z,29.58
2023-03-03T04:02:47.050Z,29.85
2023-03-03T04:05:16.001Z,28.50
2023-03-03T04:07:43.502Z,29.13
2023-03-03T04:10:12.053Z,28.83
2023-03-03T04:12:39.569Z,29.95
2023-03-03T04:15:08.884Z,26.92
2023-03-03T04:17:36.950Z,29.33
2023-03-03T04:20:05.345Z,28.95
2023-03-03T04:22:36.032Z,30.67
2023-03-03T04:25:05.614Z,27.85
2023-03-03T04:27:33.147Z,27.83
2023-03-03T04:30:00.994Z,28.20
2023-03-03T04:32:28.719Z,28.90
2023-03-03T04:35:07.232Z,28.73
2023-03-03T04:37:38.753Z,32.25
2023-03-03T04:40:08.115Z,29.33
2023-03-03T04:42:35.856Z,30.05
2023-03-03T04:45:03.642Z,29.92
2023-03-03T04:47:31.186Z,31.48
2023-03-03T04:49:58.759Z,31.70
2023-03-03T04:52:26.445Z,30.45
2023-03-03T04:54:55.294Z,30.35
2023-03-03T04:57:23.123Z,30.05
2023-03-03T04:59:51.481Z,31.48
2023-03-03T05:02:19.218Z,32.40
2023-03-03T05:04:46.898Z,30.27
2023-03-03T05:07:14.451Z,31.58
2023-03-03T05:09:41.956Z,28.15
2023-03-03T05:12:10.807Z,30.10
2023-03-03T05:14:39.558Z,32.05
2023-03-03T05:17:07.057Z,30.00
2023-03-03T05:19:34.924Z,29.92
2023-03-03T05:22:02.999Z,31.00
2023-03-03T05:24:30.484Z,29.00
2023-03-03T05:26:58.012Z,31.38
2023-03-03T05:29:28.836Z,31.27
2023-03-03T05:31:56.366Z,30.17
2023-03-03T05:34:23.892Z,29.05
2023-03-03T05:36:51.677Z,29.58
2023-03-03T05:39:19.196Z,28.73
2023-03-03T05:41:46.683Z,30.75
2023-03-03T05:44:14.205Z,29.63
2023-03-03T05:46:43.477Z,31.95
2023-03-03T05:49:10.980Z,29.83
2023-03-03T05:51:38.550Z,30.27
2023-03-03T05:54:06.425Z,31.88
2023-03-03T05:56:33.927Z,32.55
2023-03-03T05:59:01.554Z,33.92
2023-03-03T06:01:29.404Z,32.25
2023-03-03T06:03:58.382Z,32.80
2023-03-03T06:06:26.077Z,33.58
2023-03-03T06:08:56.138Z,32.72
2023-03-03T06:11:24.733Z,31.38
2023-03-03T06:13:52.314Z,32.33
2023-03-03T06:16:20.909Z,29.90
2023-03-03T06:18:48.452Z,30.73
2023-03-03T06:21:17.580Z,34.25
2023-03-03T06:23:45.165Z,31.42
2023-03-03T06:26:12.654Z,29.58
2023-03-03T06:28:40.198Z,29.58
2023-03-03T06:31:07.745Z,28.45
2023-03-03T06:33:35.297Z,29.63
2023-03-03T06:36:05.806Z,30.23
2023-03-03T06:38:34.832Z,31.13
2023-03-03T06:41:07.211Z,31.30
2023-03-03T06:43:34.859Z,32.75
2023-03-03T06:46:02.482Z,31.48
2023-03-03T06:48:30.939Z,30.00
2023-03-03T06:50:58.883Z,31.90
2023-03-03T06:53:27.504Z,32.47
2023-03-03T06:55:59.100Z,33.22
2023-03-03T06:58:27.565Z,32.47
2023-03-03T07:00:57.964Z,32.75
2023-03-03T07:03:28.244Z,28.48
2023-03-03T07:05:55.744Z,28.92
2023-03-03T07:08:25.423Z,32.00
2023-03-03T07:10:54.082Z,31.98
2023-03-03T07:13:25.208Z,32.17
2023-03-03T07:15:55.183Z,33.65
2023-03-03T07:18:40.301Z,32.53
2023-03-03T07:21:17.351Z,32.38
2023-03-03T07:23:46.100Z,33.95
2023-03-03T07:26:15.891Z,34.70
2023-03-03T07:28:46.269Z,31.15
2023-03-03T07:31:34.994Z,32.95
2023-03-03T07:34:06.059Z,32.30
2023-03-03T07:36:38.288Z,31.63
2023-03-03T07:39:26.429Z,30.88
2023-03-03T07:41:55.589Z,33.30
2023-03-03T07:44:32.734Z,32.58
2023-03-03T07:47:00.705Z,31.38
2023-03-03T07:49:36.622Z,29.08
2023-03-03T07:52:22.752Z,33.28
2023-03-03T07:54:50.400Z,30.98
2023-03-03T07:57:23.296Z,32.38
2023-03-03T07:59:54.122Z,31.73
2023-03-03T08:02:36.147Z,31.90
2023-03-03T08:05:27.562Z,32.50
2023-03-03T08:07:56.565Z,30.08
2023-03-03T08:10:36.132Z,34.75
2023-03-03T08:13:16.384Z,30.73
2023-03-03T08:15:46.664Z,30.25
2023-03-03T08:18:23.633Z,31.38
2023-03-03T08:20:53.738Z,30.83
2023-03-03T08:23:21.909Z,32.15
2023-03-03T08:25:51.028Z,32.78
2023-03-03T08:28:19.695Z,32.53
2023-03-03T08:30:49.834Z,31.20
2023-03-03T08:33:18.137Z,33.47
2023-03-03T08:35:46.814Z,31.88
2023-03-03T08:38:16.397Z,31.00
2023-03-03T08:40:44.296Z,32.28
2023-03-03T08:43:14.513Z,31.00
2023-03-03T08:45:42.041Z,30.58
2023-03-03T08:48:10.994Z,32.40
2023-03-03T08:50:39.505Z,30.50
2023-03-03T08:53:07.979Z,31.95
2023-03-03T08:55:35.676Z,30.88
2023-03-03T08:58:03.576Z,32.38
2023-03-03T09:00:31.280Z,32.38
2023-03-03T09:03:01.452Z,31.35
2023-03-03T09:08:13.740Z,31.00
2023-03-03T09:10:41.717Z,29.42
2023-03-03T09:21:54.931Z,27.65
2023-03-03T09:24:36.790Z,27.23
2023-03-03T09:27:16.331Z,24.83
2023-03-03T09:32:34.727Z,24.98
2023-03-03T09:35:27.491Z,26.88
2023-03-03T09:37:56.444Z,26.65
2023-03-03T09:40:48.689Z,26.58
2023-03-03T09:43:31.449Z,24.23
2023-03-03T09:46:05.300Z,24.17
2023-03-03T09:48:48.607Z,23.90
2023-03-03T09:51:47.887Z,25.50
2023-03-03T09:54:40.733Z,24.75
2023-03-03T09:57:15.832Z,25.45
2023-03-03T10:00:46.742Z,23.38
2023-03-03T10:03:40.818Z,22.40
2023-03-03T10:06:28.921Z,22.10
2023-03-03T10:09:38.695Z,23.63
2023-03-03T10:12:37.844Z,24.42
2023-03-03T10:15:48.070Z,23.17
2023-03-03T10:21:38.395Z,22.23
2023-03-03T10:24:37.264Z,22.95
2023-03-03T10:30:58.449Z,20.65
2023-03-03T10:33:44.691Z,22.85
2023-03-03T10:36:27.896Z,23.10
2023-03-03T10:39:12.197Z,21.13
2023-03-03T10:41:53.617Z,21.35
2023-03-03T10:44:41.901Z,21.15
2023-03-03T10:47:33.571Z,21.52
2023-03-03T10:50:13.906Z,20.13
2023-03-03T10:52:50.484Z,20.23
2023-03-03T10:55:47.550Z,20.27
2023-03-03T10:58:49.922Z,19.77
2023-03-03T11:04:30.627Z,18.95
2023-03-03T11:07:06.956Z,19.20
2023-03-03T11:10:03.434Z,20.10
2023-03-03T11:12:49.943Z,19.95
2023-03-03T11:15:55.317Z,20.17
2023-03-03T11:18:34.930Z,20.77
2023-03-03T11:21:26.022Z,21.02
2023-03-03T11:24:03.366Z,19.20
2023-03-03T11:27:00.330Z,18.58
2023-03-03T11:29:41.039Z,19.40
2023-03-03T11:32:21.302Z,18.70
2023-03-03T11:35:02.137Z,20.45
2023-03-03T11:37:40.924Z,19.52
2023-03-03T11:40:17.483Z,18.60
2023-03-03T11:42:57.222Z,19.20
2023-03-03T11:45:30.679Z,18.60
2023-03-03T11:48:13.079Z,19.00
2023-03-03T11:50:47.625Z,18.90
2023-03-03T11:53:29.050Z,18.20
2023-03-03T11:55:59.674Z,19.60
2023-03-03T11:58:35.058Z,20.80
2023-03-03T12:01:17.714Z,19.73
2023-03-03T12:03:50.332Z,20.17
2023-03-03T12:06:27.356Z,18.48
2023-03-03T12:09:04.542Z,18.90
2023-03-03T12:11:37.885Z,20.67
2023-03-03T12:14:18.940Z,19.45
2023-03-03T12:16:56.540Z,19.83
2023-03-03T12:19:35.296Z,18.50
2023-03-03T12:22:13.322Z,18.65
2023-03-03T12:24:51.039Z,19.95
2023-03-03T12:27:24.538Z,19.02
2023-03-03T12:30:04.995Z,18.85
2023-03-03T12:32:49.966Z,20.08
2023-03-03T12:35:27.179Z,19.50
2023-03-03T12:38:05.215Z,18.80
2023-03-03T12:40:35.490Z,19.65
2023-03-03T12:43:16.151Z,19.13
2023-03-03T12:45:56.226Z,19.20
2023-03-03T12:48:36.867Z,17.98
2023-03-03T12:51:11.839Z,18.23
2023-03-03T12:53:59.911Z,20.20
2023-03-03T12:56:32.933Z,17.20
2023-03-03T12:59:05.753Z,19.73
2023-03-03T13:01:43.415Z,19.50
2023-03-03T13:04:18.492Z,18.65
2023-03-03T13:06:53.363Z,18.92
2023-03-03T13:09:32.284Z,18.88
2023-03-03T13:12:11.959Z,19.83
2023-03-03T13:14:48.087Z,19.25
2023-03-03T13:17:22.216Z,19.83
2023-03-03T13:19:56.582Z,18.98
2023-03-03T13:22:38.495Z,17.95
2023-03-03T13:25:21.969Z,19.25
2023-03-03T13:27:53.238Z,19.08
2023-03-03T13:30:23.848Z,19.05
2023-03-03T13:32:56.024Z,19.98
2023-03-03T13:35:33.511Z,17.92
2023-03-03T13:38:03.554Z,19.60
2023-03-03T13:40:42.333Z,19.08
2023-03-03T13:43:18.045Z,19.00
2023-03-03T13:45:55.259Z,18.48
2023-03-03T13:48:43.109Z,19.85
2023-03-03T13:51:20.830Z,19.52
2023-03-03T13:53:56.353Z,19.88
2023-03-03T13:56:38.913Z,18.73
2023-03-03T13:59:19.507Z,18.73
2023-03-03T14:01:58.968Z,19.25
2023-03-03T14:04:39.378Z,19.52
2023-03-03T14:07:15.370Z,19.55
2023-03-03T14:09:56.737Z,18.77
2023-03-03T14:12:35.302Z,19.52
2023-03-03T14:15:16.474Z,19.65
2023-03-03T14:18:03.720Z,20.10
2023-03-03T14:20:33.209Z,21.20
2023-03-03T14:23:03.272Z,20.45
2023-03-03T14:25:55.267Z,19.17
2023-03-03T14:28:26.073Z,20.52
2023-03-03T14:30:58.984Z,19.75
2023-03-03T14:33:32.379Z,20.48
2023-03-03T14:36:06.022Z,19.75
2023-03-03T14:38:44.226Z,21.15
2023-03-03T14:41:17.795Z,20.40
2023-03-03T14:43:47.688Z,21.13
2023-03-03T14:46:36.882Z,21.20
2023-03-03T14:49:07.403Z,20.02
2023-03-03T14:51:42.429Z,19.55
2023-03-03T14:54:21.371Z,20.98
2023-03-03T14:57:01.341Z,22.98
2023-03-03T14:59:31.678Z,20.88
2023-03-03T15:02:14.255Z,20.08
2023-03-03T15:04:41.852Z,20.13
2023-03-03T15:07:28.603Z,19.50
2023-03-03T15:09:56.142Z,20.25
2023-03-03T15:12:25.414Z,18.90
2023-03-03T15:15:03.466Z,19.08
2023-03-03T15:17:36.517Z,20.10
2023-03-03T15:20:24.805Z,19.90
2023-03-03T15:22:57.376Z,19.58
2023-03-03T15:25:42.339Z,21.95
2023-03-03T15:28:36.473Z,20.60
2023-03-03T15:31:15.763Z,21.10
2023-03-03T15:33:52.730Z,21.60
2023-03-03T15:36:30.931Z,19.58
2023-03-03T15:39:09.512Z,19.52
2023-03-03T15:41:41.850Z,22.05
2023-03-03T15:44:17.847Z,22.25
2023-03-03T15:46:59.817Z,20.58
2023-03-03T15:49:54.407Z,22.97
2023-03-03T15:52:34.905Z,21.90
2023-03-03T15:55:21.084Z,23.70
2023-03-03T15:58:01.762Z,21.05
2023-03-03T16:00:38.736Z,22.20
2023-03-03T16:03:15.275Z,22.63
2023-03-03T16:05:53.358Z,22.30
2023-03-03T16:08:26.165Z,21.00
2023-03-03T16:11:03.611Z,21.15
2023-03-03T16:13:42.634Z,22.60
2023-03-03T16:16:19.761Z,21.48
2023-03-03T16:19:00.356Z,22.80
2023-03-03T16:21:49.477Z,21.35
2023-03-03T16:24:29.950Z,22.58
2023-03-03T16:27:06.371Z,24.08
2023-03-03T16:29:47.892Z,24.20
2023-03-03T16:32:22.812Z,22.08
2023-03-03T16:34:59.169Z,22.48
2023-03-03T16:37:32.646Z,22.42
2023-03-03T16:40:09.344Z,23.10
2023-03-03T16:42:36.892Z,22.75
2023-03-03T16:45:22.168Z,22.48
2023-03-03T16:48:12.743Z,22.70
2023-03-03T16:50:47.111Z,23.02
2023-03-03T16:53:30.709Z,22.05
2023-03-03T16:56:07.853Z,23.50
2023-03-03T16:58:47.302Z,24.20
2023-03-03T17:01:26.136Z,23.52
2023-03-03T17:04:04.252Z,23.23
2023-03-03T17:06:43.463Z,23.00
2023-03-03T17:09:39.597Z,23.38
2023-03-03T17:12:31.550Z,24.13
2023-03-03T17:15:13.505Z,23.83
2023-03-03T17:17:45.351Z,24.20
2023-03-03T17:20:21.134Z,23.92
2023-03-03T17:22:58.877Z,24.52
2023-03-03T17:25:37.376Z,23.15
2023-03-03T17:28:18.037Z,23.45
2023-03-03T17:30:51.727Z,23.40
2023-03-03T17:33:29.696Z,24.10
2023-03-03T17:36:18.267Z,23.98
2023-03-03T17:38:58.352Z,24.17
2023-03-03T17:41:33.865Z,23.88
2023-03-03T17:44:06.494Z,21.33
2023-03-03T17:46:40.513Z,23.90
2023-03-03T17:49:42.037Z,21.63
2023-03-03T17:52:33.666Z,25.25
2023-03-03T17:55:20.702Z,26.63
2023-03-03T17:58:03.493Z,27.95
2023-03-03T18:00:41.020Z,28.42
2023-03-03T18:03:27.484Z,27.77
2023-03-03T18:06:15.743Z,28.85
2023-03-03T18:09:14.519Z,26.30
2023-03-03T18:11:59.864Z,27.40
2023-03-03T18:15:07.353Z,27.77
2023-03-03T18:17:37.977Z,26.73
2023-03-03T18:20:41.805Z,27.70
2023-03-03T18:23:33.924Z,24.67
2023-03-03T18:26:03.628Z,26.15
2023-03-03T18:28:46.835Z,25.95
2023-03-03T18:31:24.904Z,24.77
2023-03-03T18:34:08.236Z,27.23
2023-03-03T18:36:38.532Z,26.40
2023-03-03T18:39:07.992Z,25.10
2023-03-03T18:42:07.230Z,24.35
2023-03-03T18:44:34.868Z,27.10
2023-03-03T18:47:02.440Z,27.27
2023-03-03T18:50:08.515Z,27.30
2023-03-03T18:52:36.969Z,26.02
2023-03-03T18:55:27.194Z,26.02
2023-03-03T18:58:23.853Z,27.40
2023-03-03T19:00:53.480Z,26.42
2023-03-03T19:03:28.326Z,25.67
2023-03-03T19:05:57.826Z,24.30
2023-03-03T19:08:27.413Z,25.50
2023-03-03T19:10:57.525Z,26.17
2023-03-03T19:13:46.695Z,28.83
2023-03-03T19:16:36.824Z,27.10
2023-03-03T19:19:12.207Z,26.58
2023-03-03T19:21:42.647Z,27.27
2023-03-03T19:24:33.691Z,25.17
2023-03-03T19:27:28.559Z,28.10
2023-03-03T19:30:20.915Z,29.52
2023-03-03T19:33:12.974Z,27.42
2023-03-03T19:35:52.573Z,29.38
2023-03-03T19:38:28.718Z,28.90
2023-03-03T19:41:08.817Z,30.25
2023-03-03T19:43:43.161Z,27.20
2023-03-03T19:46:32.629Z,26.98
2023-03-03T19:49:07.592Z,26.30
2023-03-03T19:51:40.853Z,24.40
2023-03-03T19:54:23.564Z,25.52
2023-03-03T19:56:53.761Z,25.48
2023-03-03T19:59:31.400Z,24.92
2023-03-03T20:02:16.042Z,25.52
2023-03-03T20:04:58.011Z,23.65
2023-03-03T20:07:33.674Z,22.50
2023-03-03T20:10:12.254Z,22.08
2023-03-03T20:12:59.830Z,23.48
2023-03-03T20:15:39.318Z,22.17
2023-03-03T20:18:34.906Z,23.05
2023-03-03T20:21:09.091Z,26.48
2023-03-03T20:23:46.091Z,27.08
2023-03-03T20:26:17.639Z,27.73
2023-03-03T20:29:03.617Z,27.15
2023-03-03T20:31:38.162Z,25.17
2023-03-03T20:34:15.033Z,27.77
2023-03-03T20:36:53.285Z,28.50
2023-03-03T20:39:36.188Z,25.77
2023-03-03T20:42:12.173Z,27.20
2023-03-03T20:44:52.603Z,26.98
2023-03-03T20:47:32.122Z,24.02
2023-03-03T20:50:16.595Z,24.65
2023-03-03T20:52:56.658Z,25.02
2023-03-03T20:55:32.318Z,23.25
2023-03-03T20:58:05.867Z,23.73
2023-03-03T21:00:38.146Z,24.25
2023-03-03T21:03:15.193Z,24.05
2023-03-03T21:06:01.582Z,22.73
2023-03-03T21:08:54.302Z,22.95
2023-03-03T21:11:25.316Z,22.02
2023-03-03T21:13:54.416Z,20.95
2023-03-03T21:16:33.277Z,22.67
2023-03-03T21:19:03.262Z,21.80
2023-03-03T21:21:34.840Z,21.48
2023-03-03T21:24:02.590Z,22.92
2023-03-03T21:26:49.150Z,21.95
2023-03-03T21:29:24.981Z,21.90
2023-03-03T21:31:55.065Z,20.65
2023-03-03T21:34:29.087Z,21.60
2023-03-03T21:36:58.995Z,20.05
2023-03-03T21:39:31.844Z,19.48
2023-03-03T21:44:46.841Z,19.77
2023-03-03T21:47:16.047Z,19.75
2023-03-03T21:49:44.437Z,20.10
2023-03-03T21:52:16.337Z,20.92
2023-03-03T21:54:44.417Z,20.67
2023-03-03T21:57:12.594Z,21.48
2023-03-03T21:59:40.662Z,21.75
2023-03-03T22:02:09.026Z,21.55
2023-03-03T22:04:38.390Z,21.73
2023-03-03T22:07:06.301Z,21.98
2023-03-03T22:09:35.575Z,21.33
2023-03-03T22:12:03.280Z,20.95
2023-03-03T22:14:30.806Z,22.08
2023-03-03T22:16:58.432Z,21.13
2023-03-03T22:19:26.174Z,21.25
2023-03-03T22:21:53.701Z,20.73
2023-03-03T22:24:21.394Z,22.60
2023-03-03T22:26:50.292Z,20.83
2023-03-03T22:29:22.678Z,21.52
2023-03-03T22:31:50.258Z,20.90
2023-03-03T22:34:18.046Z,19.65
2023-03-03T22:36:45.616Z,21.50
2023-03-03T22:39:13.142Z,22.27
2023-03-03T22:41:40.678Z,21.02
2023-03-03T22:44:09.560Z,20.17
2023-03-03T22:46:37.153Z,16.70
2023-03-03T22:49:04.658Z,17.83
2023-03-03T22:51:32.159Z,20.05
2023-03-03T22:53:59.674Z,20.08
2023-03-03T22:56:27.199Z,23.30
2023-03-03T22:58:54.718Z,22.50
2023-03-03T23:01:23.601Z,25.85
2023-03-03T23:03:51.147Z,23.65
2023-03-03T23:06:18.682Z,24.13
2023-03-03T23:08:46.176Z,25.10
2023-03-03T23:11:13.654Z,22.35
2023-03-03T23:13:41.180Z,20.55
2023-03-03T23:16:08.980Z,19.02
2023-03-03T23:18:37.909Z,18.10
2023-03-03T23:21:05.703Z,18.20
2023-03-03T23:23:33.271Z,18.48
2023-03-03T23:26:00.854Z,17.27
2023-03-03T23:28:28.406Z,18.30
2023-03-03T23:30:55.940Z,18.38
2023-03-03T23:33:23.905Z,18.60
2023-03-03T23:35:52.894Z,18.40
2023-03-03T23:38:20.559Z,20.52
2023-03-03T23:40:48.144Z,19.45
2023-03-03T23:43:16.045Z,17.23
2023-03-03T23:45:43.638Z,19.10
2023-03-03T23:48:11.341Z,16.90
2023-03-03T23:50:39.233Z,16.90
2023-03-03T23:53:08.887Z,17.45
2023-03-03T23:55:37.583Z,15.13
2023-03-03T23:58:05.515Z,21.05
